Time;durP1;ratioP1;P1;durP2;ratioP2;P2;SDS_P1;SDS_P2;PMS_P1;PMS_P2;Temp;Humidity;BMP_temperature;BMP_pressure;BME280_temperature;BME280_humidity;BME280_pressure;Samples;Min_cycle;Max_cycle;Signal;HPM_P1;HPM_P2
2021/09/26 14:00:34;;;;;;;1.15;1.15;;;;;;;11.15;75.22;99355.22;6396765;22;20454;-83
2021/09/26 14:03:19;;;;;;;1.67;1.38;;;;;;;11.15;74.59;99363.06;6395894;22;20067;-81
2021/09/26 14:06:03;;;;;;;0.80;0.80;;;;;;;11.20;74.65;99367.03;6395802;22;20040;-82
2021/09/26 14:08:54;;;;;;;4.20;0.90;;;;;;;11.26;73.43;99366.63;6399366;22;20038;-79
2021/09/26 14:11:43;;;;;;;1.35;0.82;;;;;;;11.24;73.51;99357.22;6364635;22;20033;-79
2021/09/26 14:14:28;;;;;;;1.08;0.77;;;;;;;11.21;74.00;99376.56;6364037;22;20068;-80
2021/09/26 14:17:13;;;;;;;0.75;0.75;;;;;;;11.16;73.79;99365.56;6364407;22;20060;-79
2021/09/26 14:19:59;;;;;;;1.00;1.00;;;;;;;11.15;74.13;99376.97;6340643;22;20029;-81
2021/09/26 14:22:44;;;;;;;1.38;1.25;;;;;;;11.15;74.15;99387.41;6365093;22;20028;-73
2021/09/26 14:25:28;;;;;;;0.85;0.85;;;;;;;11.13;74.50;99391.03;6364237;22;20071;-71
2021/09/26 14:28:13;;;;;;;1.15;1.15;;;;;;;11.08;74.76;99357.41;6371227;22;20029;-79
2021/09/26 14:30:57;;;;;;;2.17;1.77;;;;;;;11.05;74.61;99386.31;6373682;22;20025;-79
2021/09/26 14:33:43;;;;;;;0.82;0.82;;;;;;;11.10;74.94;99392.09;6367172;22;20064;-79
2021/09/26 14:36:29;;;;;;;1.65;1.42;;;;;;;11.06;75.64;99401.03;6365654;22;20029;-78
2021/09/26 14:39:13;;;;;;;1.20;1.20;;;;;;;11.03;75.87;99408.25;6366060;22;20052;-80
2021/09/26 14:41:58;;;;;;;0.98;0.98;;;;;;;11.03;75.86;99411.69;6364951;22;20071;-78
2021/09/26 14:44:43;;;;;;;12.18;1.60;;;;;;;11.03;75.44;99414.31;6364581;22;20036;-76
2021/09/26 14:47:27;;;;;;;0.40;0.40;;;;;;;11.09;74.76;99406.09;6365091;22;20029;-80
2021/09/26 14:50:12;;;;;;;4.10;1.60;;;;;;;11.05;74.25;99409.84;6363062;22;20029;-79
2021/09/26 14:52:56;;;;;;;18.83;1.33;;;;;;;11.07;74.39;99421.00;6361453;22;20029;-78
2021/09/26 14:55:41;;;;;;;0.82;0.82;;;;;;;11.05;74.13;99425.50;6363144;22;20079;-78
2021/09/26 14:58:27;;;;;;;3.28;1.40;;;;;;;11.01;74.39;99403.13;6363443;22;20513;-78
2021/09/26 15:01:12;;;;;;;0.63;0.63;;;;;;;11.03;74.29;99432.59;6363687;22;20429;-79
2021/09/26 15:03:56;;;;;;;0.95;0.95;;;;;;;11.05;73.67;99437.72;6362907;22;20056;-77
2021/09/26 15:06:40;;;;;;;0.85;0.85;;;;;;;10.99;74.42;99446.81;6360496;22;20033;-79
2021/09/26 15:09:25;;;;;;;0.60;0.60;;;;;;;10.99;73.96;99438.97;6359873;22;20095;-79
2021/09/26 15:12:10;;;;;;;0.77;0.77;;;;;;;10.94;74.10;99427.94;6362555;22;20097;-80
2021/09/26 15:14:54;;;;;;;30.13;1.20;;;;;;;11.01;73.76;99460.59;6361285;22;20491;-79
2021/09/26 15:17:39;;;;;;;1.20;1.20;;;;;;;11.01;73.67;99449.28;6363741;22;20071;-80
2021/09/26 15:20:24;;;;;;;0.80;0.80;;;;;;;10.97;74.21;99453.88;6340437;22;20056;-79
2021/09/26 15:23:09;;;;;;;3.20;2.35;;;;;;;10.89;74.80;99471.81;6364627;22;20381;-79
2021/09/26 15:25:54;;;;;;;1.13;1.13;;;;;;;10.83;74.84;99462.56;6364723;22;20044;-80
2021/09/26 15:28:38;;;;;;;0.80;0.80;;;;;;;10.82;75.16;99473.97;6364798;22;20476;-81
2021/09/26 15:31:23;;;;;;;1.00;1.00;;;;;;;10.82;75.24;99475.72;6364753;22;20076;-80
2021/09/26 15:34:08;;;;;;;2.72;1.08;;;;;;;10.79;75.60;99478.53;6364372;22;20415;-80
2021/09/26 15:36:52;;;;;;;1.13;1.13;;;;;;;10.72;76.53;99483.28;6362770;22;20488;-72
2021/09/26 15:39:36;;;;;;;0.98;0.98;;;;;;;10.66;76.78;99490.66;6362806;22;20461;-75
2021/09/26 15:42:21;;;;;;;7.00;1.77;;;;;;;10.58;76.66;99485.06;6366528;22;20133;-79
2021/09/26 15:45:20;;;;;;;0.93;0.93;;;;;;;10.56;77.58;99499.97;6364764;22;20047;-80
2021/09/26 15:48:05;;;;;;;1.17;1.17;;;;;;;10.53;77.53;99484.50;6345230;22;20029;-81
2021/09/26 15:50:52;;;;;;;12.10;2.13;;;;;;;10.50;77.96;99500.34;6365420;22;20029;-80
2021/09/26 15:54:05;;;;;;;1.40;1.40;;;;;;;10.47;78.51;99508.38;6366537;22;20025;-80
2021/09/26 15:56:50;;;;;;;0.80;0.80;;;;;;;10.42;78.59;99483.38;6361097;22;20041;-78
2021/09/26 15:59:34;;;;;;;0.90;0.90;;;;;;;10.42;79.24;99516.47;6368059;22;20082;-80
2021/09/26 16:02:19;;;;;;;1.30;1.30;;;;;;;10.38;79.45;99528.84;6367087;22;20109;-83
2021/09/26 16:05:06;;;;;;;0.98;0.98;;;;;;;10.37;79.93;99529.78;6382152;22;20029;-82
2021/09/26 16:07:50;;;;;;;0.85;0.85;;;;;;;10.37;79.44;99537.59;6382254;22;20338;-83
2021/09/26 16:10:39;;;;;;;1.17;1.17;;;;;;;10.36;79.55;99530.72;6367768;22;20496;-85
2021/09/26 16:13:29;;;;;;;1.40;1.40;;;;;;;10.33;78.91;99540.50;6361107;22;20029;-85
2021/09/26 16:16:14;;;;;;;0.60;0.60;;;;;;;10.27;80.41;99530.44;6384479;22;20025;-85
2021/09/26 16:18:59;;;;;;;1.30;1.20;;;;;;;10.24;81.07;99536.63;6380922;22;20033;-83
2021/09/26 16:21:43;;;;;;;2.30;1.63;;;;;;;10.16;81.18;99551.91;6378402;22;20373;-82
2021/09/26 16:24:28;;;;;;;1.15;1.15;;;;;;;10.19;81.35;99548.28;6368742;22;20420;-81
2021/09/26 16:27:12;;;;;;;1.42;1.33;;;;;;;10.20;81.06;99561.25;6389925;22;20055;-81
2021/09/26 16:29:57;;;;;;;1.38;1.30;;;;;;;10.21;80.73;99547.25;6373200;22;20028;-81
2021/09/26 16:33:12;;;;;;;0.75;0.75;;;;;;;10.17;81.01;99564.03;6330781;22;20032;-83
2021/09/26 16:35:59;;;;;;;1.13;1.13;;;;;;;10.19;80.45;99563.94;6346133;22;20287;-82
2021/09/26 16:38:46;;;;;;;1.45;1.35;;;;;;;10.16;81.05;99564.94;6368960;22;20509;-82
2021/09/26 16:41:32;;;;;;;1.88;1.58;;;;;;;10.16;80.30;99559.75;6323623;22;20110;-83
2021/09/26 16:44:16;;;;;;;0.80;0.80;;;;;;;10.18;80.80;99575.28;6353676;22;20025;-84
2021/09/26 16:47:01;;;;;;;12.65;1.33;;;;;;;10.14;80.51;99566.81;6375794;22;20206;-83
2021/09/26 16:49:45;;;;;;;0.68;0.68;;;;;;;10.08;81.13;99567.13;6367650;22;20102;-82
2021/09/26 16:52:30;;;;;;;1.55;1.50;;;;;;;10.04;81.42;99573.47;6304564;22;20068;-84
2021/09/26 16:55:15;;;;;;;1.30;1.20;;;;;;;10.04;82.17;99575.22;6349450;22;20033;-81
2021/09/26 16:57:59;;;;;;;5.05;2.33;;;;;;;10.04;82.39;99588.25;6371083;22;20074;-80
2021/09/26 17:00:44;;;;;;;0.88;0.88;;;;;;;10.02;82.70;99593.56;6347653;22;20072;-82
2021/09/26 17:03:28;;;;;;;1.15;1.15;;;;;;;10.00;83.17;99597.19;6370361;22;20063;-80
2021/09/26 17:06:13;;;;;;;0.75;0.75;;;;;;;9.99;83.47;99609.38;6368907;22;20068;-82
2021/09/26 17:08:57;;;;;;;2.33;1.33;;;;;;;9.97;83.55;99605.19;6367686;22;20033;-78
2021/09/26 17:11:42;;;;;;;5.85;2.25;;;;;;;9.95;83.93;99615.69;6367661;22;20491;-83
2021/09/26 17:14:27;;;;;;;0.80;0.80;;;;;;;9.88;84.04;99606.53;6376677;22;20036;-83
2021/09/26 17:17:15;;;;;;;0.85;0.85;;;;;;;9.77;85.29;99608.91;6368237;22;20799;-81
2021/09/26 17:20:00;;;;;;;1.35;1.35;;;;;;;9.81;85.37;99605.19;6367875;22;20546;-79
2021/09/26 17:22:45;;;;;;;1.20;1.17;;;;;;;9.83;85.51;99616.38;6368893;22;20067;-80
2021/09/26 17:25:29;;;;;;;1.52;1.20;;;;;;;9.79;85.63;99620.06;6367322;22;20075;-80
2021/09/26 17:28:14;;;;;;;3.15;0.95;;;;;;;9.80;85.47;99629.59;6367142;22;20482;-80
2021/09/26 17:31:00;;;;;;;0.93;0.93;;;;;;;9.79;85.64;99633.09;6345675;22;20051;-79
2021/09/26 17:33:44;;;;;;;5.53;1.38;;;;;;;9.76;86.18;99628.91;6365752;22;20120;-78
2021/09/26 17:36:30;;;;;;;4.93;1.48;;;;;;;9.78;85.77;99631.44;6367068;22;20029;-78
2021/09/26 17:39:14;;;;;;;1.20;1.20;;;;;;;9.81;85.87;99649.53;6365899;22;20113;-79
2021/09/26 17:41:59;;;;;;;0.88;0.88;;;;;;;9.79;85.63;99640.91;6342942;22;20026;-79
2021/09/26 17:44:43;;;;;;;1.77;1.33;;;;;;;9.84;85.66;99651.97;6324517;22;20110;-79
2021/09/26 17:47:28;;;;;;;1.20;1.15;;;;;;;9.86;84.85;99656.16;6367584;22;20135;-82
2021/09/26 17:50:13;;;;;;;1.35;1.30;;;;;;;9.90;85.39;99651.63;6366722;22;20028;-79
2021/09/26 17:52:57;;;;;;;0.70;0.70;;;;;;;9.93;85.01;99661.88;6366461;22;20029;-78
2021/09/26 17:55:42;;;;;;;1.98;1.48;;;;;;;9.94;85.40;99653.13;6370597;22;20091;-79
2021/09/26 17:58:26;;;;;;;0.73;0.73;;;;;;;9.98;84.63;99659.84;6372471;22;20105;-79
2021/09/26 18:01:11;;;;;;;1.65;1.65;;;;;;;10.01;84.59;99669.28;6367161;22;20075;-79
2021/09/26 18:03:56;;;;;;;1.40;1.30;;;;;;;10.03;84.41;99663.03;6362126;22;20192;-82
2021/09/26 18:06:40;;;;;;;1.23;1.23;;;;;;;10.02;84.58;99666.56;6341167;22;20029;-80
2021/09/26 18:09:25;;;;;;;1.33;1.23;;;;;;;10.02;84.22;99663.97;6374870;22;20025;-79
2021/09/26 18:12:10;;;;;;;1.48;1.38;;;;;;;10.04;84.43;99679.53;6375848;22;20032;-79
2021/09/26 18:14:54;;;;;;;0.93;0.93;;;;;;;9.98;84.34;99665.06;6370905;22;20044;-79
2021/09/26 18:17:39;;;;;;;5.15;1.77;;;;;;;9.99;84.53;99682.38;6363007;22;20025;-74
2021/09/26 18:20:26;;;;;;;1.27;0.85;;;;;;;9.98;84.90;99664.25;6363825;22;20040;-76
2021/09/26 18:23:11;;;;;;;1.67;1.58;;;;;;;9.96;84.68;99690.38;6360867;22;20404;-74
2021/09/26 18:25:58;;;;;;;1.23;1.23;;;;;;;9.96;85.10;99687.78;6363163;22;20032;-74
2021/09/26 18:29:17;;;;;;;1.83;1.73;;;;;;;9.76;84.94;99660.19;6369593;22;20034;-81
2021/09/26 18:32:03;;;;;;;1.55;1.50;;;;;;;9.94;85.60;99694.84;6364288;22;20215;-82
2021/09/26 18:34:47;;;;;;;1.00;1.00;;;;;;;9.91;85.91;99695.84;6362013;22;20468;-77
2021/09/26 18:37:32;;;;;;;2.30;2.08;;;;;;;9.90;86.24;99701.16;6365699;22;20065;-77
2021/09/26 18:40:17;;;;;;;0.90;0.90;;;;;;;9.91;85.59;99705.47;6365369;22;20071;-78
2021/09/26 18:43:03;;;;;;;4.43;1.90;;;;;;;9.89;85.76;99702.06;6366873;22;20061;-79
2021/09/26 18:45:48;;;;;;;1.70;1.63;;;;;;;9.81;86.51;99705.13;6365721;22;20368;-81
2021/09/26 18:48:34;;;;;;;1.42;1.42;;;;;;;9.83;86.78;99723.25;6343344;22;20029;-80
2021/09/26 18:51:20;;;;;;;2.50;1.30;;;;;;;9.81;86.38;99719.91;6367359;22;20072;-82
2021/09/26 18:54:05;;;;;;;1.17;1.17;;;;;;;9.83;86.77;99718.06;6368362;22;20046;-82
2021/09/26 18:56:49;;;;;;;1.80;1.70;;;;;;;9.81;86.99;99714.69;6370919;22;20048;-81
2021/09/26 18:59:33;;;;;;;1.27;1.27;;;;;;;9.80;86.60;99726.03;6376438;22;20029;-81
2021/09/26 19:02:18;;;;;;;0.90;0.90;;;;;;;9.77;87.58;99723.59;6367554;22;20025;-80
2021/09/26 19:05:04;;;;;;;1.05;1.00;;;;;;;9.77;87.28;99723.59;6366232;22;20635;-79
2021/09/26 19:07:49;;;;;;;1.70;1.70;;;;;;;9.75;87.24;99736.69;6345586;22;20075;-78
2021/09/26 19:10:34;;;;;;;1.30;1.30;;;;;;;9.77;87.56;99740.09;6365033;22;20163;-79
2021/09/26 19:13:19;;;;;;;1.63;1.52;;;;;;;9.77;87.51;99727.06;6366797;22;20036;-79
2021/09/26 19:16:03;;;;;;;1.48;1.48;;;;;;;9.74;87.34;99739.41;6364899;22;20071;-80
2021/09/26 19:18:48;;;;;;;1.25;1.25;;;;;;;9.74;87.50;99739.41;6366068;22;20029;-80
2021/09/26 19:21:32;;;;;;;1.70;1.60;;;;;;;9.79;86.64;99737.38;6367498;22;20105;-79
2021/09/26 19:24:16;;;;;;;1.80;1.70;;;;;;;9.79;86.38;99750.41;6364442;22;20045;-80
2021/09/26 19:27:01;;;;;;;1.40;1.40;;;;;;;9.76;87.16;99761.84;6366654;22;20484;-81
2021/09/26 19:29:45;;;;;;;1.58;1.58;;;;;;;9.80;86.66;99759.94;6365702;22;20099;-79
2021/09/26 19:32:32;;;;;;;1.67;1.67;;;;;;;9.82;86.31;99768.50;6365742;22;20670;-77
2021/09/26 19:35:19;;;;;;;2.05;1.95;;;;;;;9.83;86.27;99759.75;6366048;22;20656;-79
2021/09/26 19:38:04;;;;;;;1.55;1.45;;;;;;;9.79;86.25;99776.47;6367772;22;20064;-79
2021/09/26 19:40:49;;;;;;;3.53;3.30;;;;;;;9.81;85.71;99769.44;6366355;22;20061;-79
2021/09/26 19:43:33;;;;;;;7.10;2.40;;;;;;;9.82;85.87;99773.72;6343600;22;20029;-79
2021/09/26 19:46:18;;;;;;;1.33;1.27;;;;;;;9.80;85.76;99791.22;6366170;22;20025;-79
2021/09/26 19:49:04;;;;;;;1.35;1.35;;;;;;;9.81;86.06;99792.91;6369769;22;20056;-78
2021/09/26 19:51:50;;;;;;;2.67;2.42;;;;;;;9.86;85.41;99790.88;6319020;22;20025;-77
2021/09/26 19:54:35;;;;;;;2.45;2.35;;;;;;;9.86;85.06;99796.09;6320145;22;20033;-81
2021/09/26 19:57:19;;;;;;;1.17;1.15;;;;;;;9.85;85.75;99789.19;6342243;22;20030;-77
2021/09/26 20:00:05;;;;;;;1.48;1.48;;;;;;;9.85;85.20;99800.47;6365154;22;20106;-76
2021/09/26 20:02:56;;;;;;;0.98;0.98;;;;;;;9.92;85.65;99803.59;6365837;22;20024;-76
2021/09/26 20:05:41;;;;;;;1.73;1.63;;;;;;;9.87;85.29;99803.84;6365668;22;20072;-76
2021/09/26 20:08:26;;;;;;;0.80;0.80;;;;;;;9.87;85.38;99818.66;6365602;22;20025;-75
2021/09/26 20:11:11;;;;;;;1.38;1.38;;;;;;;9.88;85.16;99813.34;6364135;22;20393;-80
2021/09/26 20:13:55;;;;;;;2.33;2.22;;;;;;;9.87;85.33;99816.03;6364554;22;20079;-80
2021/09/26 20:16:42;;;;;;;1.65;1.55;;;;;;;9.90;85.14;99818.50;6363551;22;20029;-79
2021/09/26 20:19:26;;;;;;;5.53;1.98;;;;;;;9.93;84.39;99820.94;6363251;22;20029;-78
2021/09/26 20:22:11;;;;;;;1.92;1.83;;;;;;;9.91;84.70;99809.75;6364217;22;20029;-80
2021/09/26 20:24:56;;;;;;;2.58;2.42;;;;;;;9.96;84.59;99820.78;6363789;22;20034;-80
2021/09/26 20:27:40;;;;;;;2.72;1.92;;;;;;;9.91;85.73;99821.00;6363421;22;20025;-80
2021/09/26 20:30:25;;;;;;;6.47;2.45;;;;;;;9.91;84.51;99834.03;6364584;22;20041;-80
2021/09/26 20:33:09;;;;;;;2.22;2.13;;;;;;;9.94;84.82;99830.44;6362994;22;20026;-79
2021/09/26 20:35:54;;;;;;;1.10;1.10;;;;;;;9.93;85.41;99845.25;6388833;22;20053;-83
2021/09/26 20:38:38;;;;;;;1.73;1.73;;;;;;;9.92;85.06;99853.13;6378500;22;20030;-83
2021/09/26 20:41:24;;;;;;;2.38;2.20;;;;;;;9.93;84.82;99845.25;6383279;22;20033;-84
2021/09/26 20:44:10;;;;;;;2.08;1.88;;;;;;;9.91;85.10;99835.84;6350703;22;20025;-83
2021/09/26 20:46:55;;;;;;;1.65;1.65;;;;;;;9.92;84.64;99854.00;6368815;22;20024;-80
2021/09/26 20:49:40;;;;;;;2.53;2.42;;;;;;;9.88;85.00;99833.38;6369026;22;20057;-83
2021/09/26 20:52:25;;;;;;;1.95;1.88;;;;;;;9.97;84.55;99856.38;6370509;22;20084;-82
2021/09/26 20:55:11;;;;;;;2.10;2.00;;;;;;;9.96;84.80;99854.66;6369408;22;20025;-82
2021/09/26 20:57:56;;;;;;;2.40;2.30;;;;;;;9.91;84.59;99844.47;6372562;22;20462;-81
2021/09/26 21:00:40;;;;;;;2.70;2.50;;;;;;;9.96;84.36;99859.88;6366802;22;20061;-80
2021/09/26 21:03:25;;;;;;;1.55;1.55;;;;;;;9.94;84.38;99862.59;6345828;22;20051;-80
2021/09/26 21:06:10;;;;;;;3.38;3.17;;;;;;;9.95;84.55;99863.41;6367653;22;20049;-80
2021/09/26 21:08:54;;;;;;;4.78;2.40;;;;;;;9.95;84.82;99879.06;6368787;22;20480;-82
2021/09/26 21:11:39;;;;;;;5.03;2.70;;;;;;;9.95;85.00;99868.63;6368710;22;20029;-81
2021/09/26 21:14:23;;;;;;;5.80;1.67;;;;;;;9.98;84.34;99883.28;6370165;22;20033;-81
2021/09/26 21:17:11;;;;;;;6.35;2.03;;;;;;;9.95;84.29;99881.66;6367545;22;20048;-77
2021/09/26 21:19:55;;;;;;;3.00;2.83;;;;;;;9.97;84.01;99882.44;6367186;22;20053;-76
2021/09/26 21:22:40;;;;;;;3.95;3.75;;;;;;;10.00;84.11;99897.94;6367594;22;20060;-76
2021/09/26 21:25:25;;;;;;;2.13;2.03;;;;;;;10.03;84.00;99896.91;6367350;22;20033;-77
2021/09/26 21:28:10;;;;;;;3.78;2.85;;;;;;;10.02;84.15;99897.84;6365952;22;20029;-75
2021/09/26 21:30:54;;;;;;;2.47;2.38;;;;;;;9.99;83.53;99898.84;6366637;22;20530;-77
2021/09/26 21:33:39;;;;;;;3.67;3.38;;;;;;;9.98;83.63;99907.59;6367401;22;20064;-77
2021/09/26 21:36:23;;;;;;;12.98;2.08;;;;;;;9.97;84.23;99902.47;6367365;22;20044;-76
2021/09/26 21:39:07;;;;;;;2.78;2.58;;;;;;;10.03;83.13;99918.63;6343286;22;20068;-77
2021/09/26 21:41:52;;;;;;;2.67;2.50;;;;;;;10.02;83.11;99913.47;6367195;22;20369;-77
2021/09/26 21:44:37;;;;;;;2.78;2.63;;;;;;;10.01;83.88;99930.94;6367036;22;20025;-76
2021/09/26 21:47:22;;;;;;;3.78;3.58;;;;;;;9.97;83.59;99925.94;6367531;22;20473;-78
2021/09/26 21:50:10;;;;;;;6.03;3.58;;;;;;;9.92;84.32;99936.59;6367417;22;20468;-76
2021/09/26 21:52:55;;;;;;;3.58;3.28;;;;;;;9.88;84.49;99929.88;6367475;22;20022;-76
2021/09/26 21:55:40;;;;;;;3.63;3.38;;;;;;;9.93;83.99;99943.50;6349207;22;20492;-77
2021/09/26 21:58:24;;;;;;;3.35;3.15;;;;;;;9.92;84.02;99945.25;6379762;22;20037;-75
2021/09/26 22:01:10;;;;;;;2.42;2.33;;;;;;;9.93;84.69;99959.16;6380464;22;20034;-76
2021/09/26 22:03:54;;;;;;;2.83;2.72;;;;;;;9.88;84.29;99961.16;6366633;22;20026;-78
2021/09/26 22:06:38;;;;;;;2.65;2.55;;;;;;;9.91;84.38;99963.59;6366312;22;20083;-77
2021/09/26 22:09:23;;;;;;;2.17;2.10;;;;;;;9.93;84.20;99978.25;6367538;22;20358;-76
2021/09/26 22:12:08;;;;;;;3.42;3.22;;;;;;;9.91;83.80;99974.84;6366808;22;20025;-75
2021/09/26 22:14:53;;;;;;;1.70;1.70;;;;;;;9.97;83.67;99972.88;6365363;22;20373;-76
2021/09/26 22:17:37;;;;;;;4.50;4.20;;;;;;;9.90;84.21;99983.63;6366849;22;20104;-75
2021/09/26 22:20:23;;;;;;;3.55;3.42;;;;;;;9.90;84.24;99985.38;6365646;22;20029;-75
2021/09/26 22:23:08;;;;;;;2.15;2.05;;;;;;;9.87;84.11;99988.13;6366571;22;20483;-76
2021/09/26 22:25:52;;;;;;;4.20;3.90;;;;;;;9.79;84.24;99969.41;6366740;22;20110;-76
2021/09/26 22:28:39;;;;;;;1.98;1.95;;;;;;;9.88;84.63;99995.06;6366974;22;20526;-77
2021/09/26 22:31:28;;;;;;;3.80;3.60;;;;;;;9.91;83.41;99981.84;6366608;22;20487;-76
2021/09/26 22:34:13;;;;;;;4.18;3.88;;;;;;;9.90;84.33;100014.06;6366650;22;20091;-77
2021/09/26 22:36:58;;;;;;;13.32;3.95;;;;;;;9.89;84.04;100014.97;6343003;22;20041;-77
2021/09/26 22:39:42;;;;;;;5.22;3.42;;;;;;;9.91;83.61;100000.09;6366773;22;20057;-77
2021/09/26 22:42:26;;;;;;;3.53;3.30;;;;;;;9.87;83.99;100015.06;6366681;22;20466;-76
2021/09/26 22:45:12;;;;;;;3.33;3.05;;;;;;;9.90;83.59;100006.25;6366142;22;20029;-76
2021/09/26 22:47:56;;;;;;;3.35;3.08;;;;;;;9.90;83.79;100032.31;6365232;22;20361;-77
2021/09/26 22:50:41;;;;;;;2.58;2.38;;;;;;;9.92;83.68;100025.25;6366637;22;20191;-77
2021/09/26 22:53:26;;;;;;;3.45;3.15;;;;;;;9.93;83.53;100037.38;6343284;22;20029;-75
2021/09/26 22:56:10;;;;;;;3.72;3.53;;;;;;;9.92;84.19;100041.75;6366171;22;20054;-75
2021/09/26 22:58:55;;;;;;;3.95;3.72;;;;;;;9.95;83.01;100040.75;6366482;22;20411;-76
2021/09/26 23:01:41;;;;;;;6.22;5.72;;;;;;;9.89;84.08;100051.47;6366133;22;20075;-75
2021/09/26 23:04:27;;;;;;;2.42;2.33;;;;;;;9.88;84.28;100048.03;6366345;22;20045;-76
2021/09/26 23:07:11;;;;;;;19.35;2.97;;;;;;;9.92;83.80;100057.38;6364936;22;20029;-74
2021/09/26 23:09:55;;;;;;;2.75;2.22;;;;;;;9.85;84.39;100049.94;6366098;22;20025;-75
2021/09/26 23:12:40;;;;;;;3.25;3.15;;;;;;;9.91;83.65;100044.44;6366329;22;20106;-75
2021/09/26 23:15:26;;;;;;;3.67;3.42;;;;;;;9.83;83.51;100052.63;6366240;22;20025;-75
2021/09/26 23:18:10;;;;;;;3.85;3.65;;;;;;;9.91;84.28;100060.09;6366089;22;20453;-75
2021/09/26 23:20:56;;;;;;;4.32;4.00;;;;;;;9.89;83.59;100067.13;6364061;22;20078;-76
2021/09/26 23:23:41;;;;;;;2.80;2.60;;;;;;;9.87;83.93;100055.94;6365949;22;20631;-76
2021/09/26 23:26:25;;;;;;;4.60;3.45;;;;;;;9.83;84.15;100072.63;6364755;22;20411;-75
2021/09/26 23:29:09;;;;;;;4.50;3.78;;;;;;;9.82;84.24;100073.53;6366091;22;20114;-75
2021/09/26 23:31:54;;;;;;;2.67;2.47;;;;;;;9.79;84.61;100077.16;6366296;22;20411;-76
2021/09/26 23:34:39;;;;;;;2.35;2.25;;;;;;;9.81;83.65;100080.56;6366302;22;20029;-75
2021/09/26 23:37:23;;;;;;;2.40;2.35;;;;;;;9.79;84.04;100089.34;6366135;22;20071;-76
2021/09/26 23:40:11;;;;;;;3.28;3.08;;;;;;;9.77;84.16;100099.84;6365764;22;20586;-76
2021/09/26 23:42:57;;;;;;;4.15;3.88;;;;;;;9.77;83.91;100099.00;6366256;22;20096;-77
2021/09/26 23:45:41;;;;;;;2.22;2.13;;;;;;;9.77;83.87;100099.84;6364704;22;20033;-76
2021/09/26 23:48:25;;;;;;;3.72;3.38;;;;;;;9.72;83.84;100103.59;6387379;22;20047;-76
2021/09/26 23:51:10;;;;;;;3.72;3.40;;;;;;;9.69;84.03;100103.72;6365771;22;20468;-76
2021/09/26 23:53:58;;;;;;;2.15;2.05;;;;;;;9.76;83.79;100108.59;6366153;22;20048;-77
2021/09/26 23:56:42;;;;;;;4.82;4.43;;;;;;;9.71;84.01;100117.56;6365998;22;20025;-77
2021/09/26 23:59:27;;;;;;;3.38;3.17;;;;;;;9.68;84.29;100104.66;6366056;22;20025;-76
